sensor_id;sensor_type;location;lat;lon;timestamp;P1;durP1;ratioP1;P2;durP2;ratioP2
13291;SDS011;6714;53.056;8.690;2022-08-19T00:01:57;6.30;;;5.70;;
13291;SDS011;6714;53.056;8.690;2022-08-19T00:04:39;5.73;;;5.23;;
13291;SDS011;6714;53.056;8.690;2022-08-19T00:07:22;6.10;;;5.50;;
13291;SDS011;6714;53.056;8.690;2022-08-19T00:10:05;8.23;;;7.27;;
13291;SDS011;6714;53.056;8.690;2022-08-19T00:12:48;6.30;;;5.70;;
13291;SDS011;6714;53.056;8.690;2022-08-19T00:15:30;6.87;;;6.27;;
13291;SDS011;6714;53.056;8.690;2022-08-19T00:18:12;6.17;;;5.57;;
13291;SDS011;6714;53.056;8.690;2022-08-19T00:20:54;6.03;;;5.37;;
13291;SDS011;6714;53.056;8.690;2022-08-19T00:23:38;6.20;;;5.50;;
13291;SDS011;6714;53.056;8.690;2022-08-19T00:26:20;6.57;;;6.00;;
13291;SDS011;6714;53.056;8.690;2022-08-19T00:29:02;6.97;;;6.20;;
13291;SDS011;6714;53.056;8.690;2022-08-19T00:31:45;5.27;;;4.70;;
13291;SDS011;6714;53.056;8.690;2022-08-19T00:34:27;7.37;;;6.07;;
13291;SDS011;6714;53.056;8.690;2022-08-19T00:37:10;5.37;;;4.80;;
13291;SDS011;6714;53.056;8.690;2022-08-19T00:39:54;6.70;;;6.07;;
13291;SDS011;6714;53.056;8.690;2022-08-19T00:42:36;5.37;;;4.93;;
13291;SDS011;6714;53.056;8.690;2022-08-19T00:45:20;6.20;;;5.60;;
13291;SDS011;6714;53.056;8.690;2022-08-19T00:48:03;5.17;;;4.60;;
13291;SDS011;6714;53.056;8.690;2022-08-19T00:50:46;5.90;;;4.97;;
13291;SDS011;6714;53.056;8.690;2022-08-19T00:53:29;6.60;;;5.87;;
13291;SDS011;6714;53.056;8.690;2022-08-19T00:56:15;7.37;;;5.43;;
13291;SDS011;6714;53.056;8.690;2022-08-19T00:58:58;6.47;;;5.70;;
13291;SDS011;6714;53.056;8.690;2022-08-19T01:01:42;6.10;;;5.50;;
13291;SDS011;6714;53.056;8.690;2022-08-19T01:04:25;5.73;;;5.23;;
13291;SDS011;6714;53.056;8.690;2022-08-19T01:07:07;6.30;;;5.70;;
13291;SDS011;6714;53.056;8.690;2022-08-19T01:09:49;4.93;;;4.13;;
13291;SDS011;6714;53.056;8.690;2022-08-19T01:12:33;4.90;;;4.40;;
13291;SDS011;6714;53.056;8.690;2022-08-19T01:15:16;4.63;;;4.23;;
13291;SDS011;6714;53.056;8.690;2022-08-19T01:17:58;4.43;;;4.03;;
13291;SDS011;6714;53.056;8.690;2022-08-19T01:20:41;5.37;;;4.60;;
13291;SDS011;6714;53.056;8.690;2022-08-19T01:23:25;5.03;;;4.60;;
13291;SDS011;6714;53.056;8.690;2022-08-19T01:26:23;4.60;;;4.20;;
13291;SDS011;6714;53.056;8.690;2022-08-19T01:29:06;4.63;;;4.23;;
13291;SDS011;6714;53.056;8.690;2022-08-19T01:31:49;4.00;;;3.70;;
13291;SDS011;6714;53.056;8.690;2022-08-19T01:34:32;4.00;;;3.70;;
13291;SDS011;6714;53.056;8.690;2022-08-19T01:37:15;4.73;;;4.27;;
13291;SDS011;6714;53.056;8.690;2022-08-19T01:39:58;4.17;;;3.80;;
13291;SDS011;6714;53.056;8.690;2022-08-19T01:42:41;4.43;;;4.03;;
13291;SDS011;6714;53.056;8.690;2022-08-19T01:45:24;4.13;;;3.73;;
13291;SDS011;6714;53.056;8.690;2022-08-19T01:48:08;4.23;;;3.90;;
13291;SDS011;6714;53.056;8.690;2022-08-19T01:50:51;4.97;;;4.00;;
13291;SDS011;6714;53.056;8.690;2022-08-19T01:53:33;3.83;;;3.50;;
13291;SDS011;6714;53.056;8.690;2022-08-19T01:56:17;5.23;;;3.97;;
13291;SDS011;6714;53.056;8.690;2022-08-19T01:59:02;3.80;;;3.50;;
13291;SDS011;6714;53.056;8.690;2022-08-19T02:01:44;4.53;;;4.10;;
13291;SDS011;6714;53.056;8.690;2022-08-19T02:04:26;4.13;;;3.60;;
13291;SDS011;6714;53.056;8.690;2022-08-19T02:07:09;3.30;;;3.00;;
13291;SDS011;6714;53.056;8.690;2022-08-19T02:09:51;4.10;;;3.43;;
13291;SDS011;6714;53.056;8.690;2022-08-19T02:12:34;4.00;;;3.60;;
13291;SDS011;6714;53.056;8.690;2022-08-19T02:15:16;4.10;;;3.53;;
13291;SDS011;6714;53.056;8.690;2022-08-19T02:17:59;3.90;;;3.50;;
13291;SDS011;6714;53.056;8.690;2022-08-19T02:20:42;3.87;;;3.23;;
13291;SDS011;6714;53.056;8.690;2022-08-19T02:23:24;3.87;;;3.50;;
13291;SDS011;6714;53.056;8.690;2022-08-19T02:26:06;3.70;;;3.40;;
13291;SDS011;6714;53.056;8.690;2022-08-19T02:28:50;3.80;;;3.50;;
13291;SDS011;6714;53.056;8.690;2022-08-19T02:31:33;3.83;;;3.53;;
13291;SDS011;6714;53.056;8.690;2022-08-19T02:34:15;4.10;;;3.80;;
13291;SDS011;6714;53.056;8.690;2022-08-19T02:36:58;4.10;;;3.80;;
13291;SDS011;6714;53.056;8.690;2022-08-19T02:39:40;4.60;;;4.20;;
13291;SDS011;6714;53.056;8.690;2022-08-19T02:42:21;5.20;;;4.70;;
13291;SDS011;6714;53.056;8.690;2022-08-19T02:45:05;4.37;;;4.07;;
13291;SDS011;6714;53.056;8.690;2022-08-19T02:47:47;6.40;;;5.80;;
13291;SDS011;6714;53.056;8.690;2022-08-19T02:50:29;5.43;;;4.93;;
13291;SDS011;6714;53.056;8.690;2022-08-19T02:53:12;4.70;;;4.30;;
13291;SDS011;6714;53.056;8.690;2022-08-19T02:55:54;5.20;;;4.70;;
13291;SDS011;6714;53.056;8.690;2022-08-19T02:58:36;6.70;;;6.00;;
13291;SDS011;6714;53.056;8.690;2022-08-19T03:01:21;6.47;;;5.87;;
13291;SDS011;6714;53.056;8.690;2022-08-19T03:04:04;6.60;;;5.70;;
13291;SDS011;6714;53.056;8.690;2022-08-19T03:06:46;8.03;;;7.27;;
13291;SDS011;6714;53.056;8.690;2022-08-19T03:09:29;8.67;;;7.77;;
13291;SDS011;6714;53.056;8.690;2022-08-19T03:12:11;5.47;;;4.97;;
13291;SDS011;6714;53.056;8.690;2022-08-19T03:14:53;7.57;;;6.87;;
13291;SDS011;6714;53.056;8.690;2022-08-19T03:17:37;6.87;;;6.27;;
13291;SDS011;6714;53.056;8.690;2022-08-19T03:20:19;6.60;;;5.90;;
13291;SDS011;6714;53.056;8.690;2022-08-19T03:23:01;6.93;;;5.40;;
13291;SDS011;6714;53.056;8.690;2022-08-19T03:25:44;6.83;;;6.23;;
13291;SDS011;6714;53.056;8.690;2022-08-19T03:28:26;6.47;;;5.87;;
13291;SDS011;6714;53.056;8.690;2022-08-19T03:31:10;8.17;;;7.37;;
13291;SDS011;6714;53.056;8.690;2022-08-19T03:33:55;5.90;;;5.40;;
13291;SDS011;6714;53.056;8.690;2022-08-19T03:36:37;6.90;;;6.10;;
13291;SDS011;6714;53.056;8.690;2022-08-19T03:39:19;7.10;;;6.40;;
13291;SDS011;6714;53.056;8.690;2022-08-19T03:42:02;7.53;;;6.73;;
13291;SDS011;6714;53.056;8.690;2022-08-19T03:44:45;6.17;;;5.60;;
13291;SDS011;6714;53.056;8.690;2022-08-19T03:47:27;6.70;;;6.10;;
13291;SDS011;6714;53.056;8.690;2022-08-19T03:50:11;5.70;;;5.20;;
13291;SDS011;6714;53.056;8.690;2022-08-19T03:52:54;5.50;;;5.07;;
13291;SDS011;6714;53.056;8.690;2022-08-19T03:55:38;6.80;;;6.10;;
13291;SDS011;6714;53.056;8.690;2022-08-19T03:58:21;6.13;;;5.53;;
13291;SDS011;6714;53.056;8.690;2022-08-19T04:01:06;5.80;;;5.20;;
13291;SDS011;6714;53.056;8.690;2022-08-19T04:03:49;6.23;;;5.63;;
13291;SDS011;6714;53.056;8.690;2022-08-19T04:06:33;5.70;;;5.10;;
13291;SDS011;6714;53.056;8.690;2022-08-19T04:09:16;5.53;;;5.03;;
13291;SDS011;6714;53.056;8.690;2022-08-19T04:11:58;6.77;;;5.77;;
13291;SDS011;6714;53.056;8.690;2022-08-19T04:14:40;5.80;;;5.20;;
13291;SDS011;6714;53.056;8.690;2022-08-19T04:17:22;6.33;;;5.80;;
13291;SDS011;6714;53.056;8.690;2022-08-19T04:20:05;6.20;;;5.60;;
13291;SDS011;6714;53.056;8.690;2022-08-19T04:22:48;5.77;;;5.27;;
13291;SDS011;6714;53.056;8.690;2022-08-19T04:25:34;6.10;;;5.50;;
13291;SDS011;6714;53.056;8.690;2022-08-19T04:28:16;5.90;;;5.40;;
13291;SDS011;6714;53.056;8.690;2022-08-19T04:30:58;6.07;;;5.53;;
13291;SDS011;6714;53.056;8.690;2022-08-19T04:33:41;5.77;;;5.27;;
13291;SDS011;6714;53.056;8.690;2022-08-19T04:36:24;7.13;;;6.43;;
13291;SDS011;6714;53.056;8.690;2022-08-19T04:39:10;6.93;;;6.33;;
13291;SDS011;6714;53.056;8.690;2022-08-19T04:41:53;7.20;;;6.50;;
13291;SDS011;6714;53.056;8.690;2022-08-19T04:44:53;7.07;;;6.37;;
13291;SDS011;6714;53.056;8.690;2022-08-19T04:47:36;7.63;;;6.87;;
13291;SDS011;6714;53.056;8.690;2022-08-19T04:50:18;6.30;;;5.70;;
13291;SDS011;6714;53.056;8.690;2022-08-19T04:53:02;6.47;;;5.40;;
13291;SDS011;6714;53.056;8.690;2022-08-19T04:55:46;7.90;;;7.03;;
13291;SDS011;6714;53.056;8.690;2022-08-19T04:58:28;7.27;;;6.57;;
13291;SDS011;6714;53.056;8.690;2022-08-19T05:01:11;7.43;;;6.47;;
13291;SDS011;6714;53.056;8.690;2022-08-19T05:03:53;7.90;;;7.10;;
13291;SDS011;6714;53.056;8.690;2022-08-19T05:06:36;11.90;;;9.03;;
13291;SDS011;6714;53.056;8.690;2022-08-19T05:09:18;11.40;;;8.37;;
13291;SDS011;6714;53.056;8.690;2022-08-19T05:12:03;8.80;;;6.97;;
13291;SDS011;6714;53.056;8.690;2022-08-19T05:14:45;11.67;;;8.93;;
13291;SDS011;6714;53.056;8.690;2022-08-19T05:17:29;11.93;;;8.43;;
13291;SDS011;6714;53.056;8.690;2022-08-19T05:20:11;14.57;;;10.47;;
13291;SDS011;6714;53.056;8.690;2022-08-19T05:23:11;12.10;;;9.83;;
13291;SDS011;6714;53.056;8.690;2022-08-19T05:25:55;8.63;;;6.93;;
13291;SDS011;6714;53.056;8.690;2022-08-19T05:28:39;7.03;;;6.03;;
13291;SDS011;6714;53.056;8.690;2022-08-19T05:31:21;7.10;;;5.67;;
13291;SDS011;6714;53.056;8.690;2022-08-19T05:34:04;15.00;;;10.77;;
13291;SDS011;6714;53.056;8.690;2022-08-19T05:36:46;11.33;;;9.50;;
13291;SDS011;6714;53.056;8.690;2022-08-19T05:39:29;8.10;;;6.77;;
13291;SDS011;6714;53.056;8.690;2022-08-19T05:42:12;12.07;;;9.63;;
13291;SDS011;6714;53.056;8.690;2022-08-19T05:44:55;11.03;;;8.70;;
13291;SDS011;6714;53.056;8.690;2022-08-19T05:47:37;11.83;;;8.00;;
13291;SDS011;6714;53.056;8.690;2022-08-19T05:50:20;10.97;;;8.03;;
13291;SDS011;6714;53.056;8.690;2022-08-19T05:53:02;7.30;;;5.40;;
13291;SDS011;6714;53.056;8.690;2022-08-19T05:55:44;9.23;;;7.50;;
13291;SDS011;6714;53.056;8.690;2022-08-19T05:58:26;11.37;;;8.43;;
13291;SDS011;6714;53.056;8.690;2022-08-19T06:01:11;10.87;;;8.07;;
13291;SDS011;6714;53.056;8.690;2022-08-19T06:03:54;10.77;;;8.10;;
13291;SDS011;6714;53.056;8.690;2022-08-19T06:06:36;12.57;;;8.47;;
13291;SDS011;6714;53.056;8.690;2022-08-19T06:09:19;7.33;;;6.17;;
13291;SDS011;6714;53.056;8.690;2022-08-19T06:12:01;11.63;;;9.90;;
13291;SDS011;6714;53.056;8.690;2022-08-19T06:14:44;11.67;;;8.83;;
13291;SDS011;6714;53.056;8.690;2022-08-19T06:17:28;8.30;;;7.20;;
13291;SDS011;6714;53.056;8.690;2022-08-19T06:20:12;5.40;;;4.90;;
13291;SDS011;6714;53.056;8.690;2022-08-19T06:22:54;10.00;;;8.10;;
13291;SDS011;6714;53.056;8.690;2022-08-19T06:25:36;12.57;;;10.43;;
13291;SDS011;6714;53.056;8.690;2022-08-19T06:28:21;7.40;;;6.23;;
13291;SDS011;6714;53.056;8.690;2022-08-19T06:31:05;7.70;;;6.33;;
13291;SDS011;6714;53.056;8.690;2022-08-19T06:33:49;11.67;;;9.20;;
13291;SDS011;6714;53.056;8.690;2022-08-19T06:36:32;6.03;;;5.43;;
13291;SDS011;6714;53.056;8.690;2022-08-19T06:39:16;7.23;;;5.90;;
13291;SDS011;6714;53.056;8.690;2022-08-19T06:42:00;10.13;;;7.93;;
13291;SDS011;6714;53.056;8.690;2022-08-19T06:44:43;7.90;;;6.63;;
13291;SDS011;6714;53.056;8.690;2022-08-19T06:47:26;9.70;;;7.50;;
13291;SDS011;6714;53.056;8.690;2022-08-19T06:50:09;7.27;;;6.47;;
13291;SDS011;6714;53.056;8.690;2022-08-19T06:52:52;6.77;;;6.03;;
13291;SDS011;6714;53.056;8.690;2022-08-19T06:55:34;10.13;;;8.17;;
13291;SDS011;6714;53.056;8.690;2022-08-19T06:58:17;10.27;;;8.30;;
13291;SDS011;6714;53.056;8.690;2022-08-19T07:01:00;8.60;;;7.70;;
13291;SDS011;6714;53.056;8.690;2022-08-19T07:03:43;8.47;;;7.00;;
13291;SDS011;6714;53.056;8.690;2022-08-19T07:06:27;6.77;;;6.07;;
13291;SDS011;6714;53.056;8.690;2022-08-19T07:09:11;8.87;;;7.37;;
13291;SDS011;6714;53.056;8.690;2022-08-19T07:11:54;8.23;;;6.90;;
13291;SDS011;6714;53.056;8.690;2022-08-19T07:14:38;8.43;;;7.33;;
13291;SDS011;6714;53.056;8.690;2022-08-19T07:17:20;7.70;;;6.97;;
13291;SDS011;6714;53.056;8.690;2022-08-19T07:20:03;8.17;;;7.43;;
13291;SDS011;6714;53.056;8.690;2022-08-19T07:22:48;6.40;;;5.80;;
13291;SDS011;6714;53.056;8.690;2022-08-19T07:25:31;8.33;;;7.40;;
13291;SDS011;6714;53.056;8.690;2022-08-19T07:28:13;7.40;;;6.70;;
13291;SDS011;6714;53.056;8.690;2022-08-19T07:30:55;9.53;;;7.63;;
13291;SDS011;6714;53.056;8.690;2022-08-19T07:33:37;6.27;;;5.67;;
13291;SDS011;6714;53.056;8.690;2022-08-19T07:36:20;10.00;;;8.97;;
13291;SDS011;6714;53.056;8.690;2022-08-19T07:39:07;7.60;;;6.87;;
13291;SDS011;6714;53.056;8.690;2022-08-19T07:41:50;8.33;;;7.53;;
13291;SDS011;6714;53.056;8.690;2022-08-19T07:44:32;7.30;;;6.30;;
13291;SDS011;6714;53.056;8.690;2022-08-19T07:47:15;7.83;;;7.13;;
13291;SDS011;6714;53.056;8.690;2022-08-19T07:49:57;6.87;;;6.23;;
13291;SDS011;6714;53.056;8.690;2022-08-19T07:52:39;7.77;;;6.53;;
13291;SDS011;6714;53.056;8.690;2022-08-19T07:55:25;7.70;;;6.90;;
13291;SDS011;6714;53.056;8.690;2022-08-19T07:58:09;10.07;;;7.53;;
13291;SDS011;6714;53.056;8.690;2022-08-19T08:00:51;10.63;;;7.90;;
13291;SDS011;6714;53.056;8.690;2022-08-19T08:03:33;10.60;;;9.50;;
13291;SDS011;6714;53.056;8.690;2022-08-19T08:06:33;8.07;;;7.27;;
13291;SDS011;6714;53.056;8.690;2022-08-19T08:09:34;13.03;;;11.67;;
13291;SDS011;6714;53.056;8.690;2022-08-19T08:12:19;12.37;;;11.10;;
13291;SDS011;6714;53.056;8.690;2022-08-19T08:15:06;8.80;;;7.70;;
13291;SDS011;6714;53.056;8.690;2022-08-19T08:17:48;11.20;;;9.67;;
13291;SDS011;6714;53.056;8.690;2022-08-19T08:20:31;10.00;;;8.97;;
13291;SDS011;6714;53.056;8.690;2022-08-19T08:23:13;8.40;;;7.57;;
13291;SDS011;6714;53.056;8.690;2022-08-19T08:26:05;7.20;;;6.03;;
13291;SDS011;6714;53.056;8.690;2022-08-19T08:28:48;9.03;;;7.60;;
13291;SDS011;6714;53.056;8.690;2022-08-19T08:31:30;7.63;;;6.93;;
13291;SDS011;6714;53.056;8.690;2022-08-19T08:34:14;7.60;;;6.90;;
13291;SDS011;6714;53.056;8.690;2022-08-19T08:36:56;7.40;;;6.70;;
13291;SDS011;6714;53.056;8.690;2022-08-19T08:39:38;7.83;;;7.07;;
13291;SDS011;6714;53.056;8.690;2022-08-19T08:42:22;7.57;;;6.83;;
13291;SDS011;6714;53.056;8.690;2022-08-19T08:45:10;6.30;;;5.70;;
13291;SDS011;6714;53.056;8.690;2022-08-19T08:47:55;6.10;;;5.57;;
13291;SDS011;6714;53.056;8.690;2022-08-19T08:50:39;4.50;;;4.10;;
13291;SDS011;6714;53.056;8.690;2022-08-19T08:53:23;5.73;;;5.17;;
13291;SDS011;6714;53.056;8.690;2022-08-19T08:56:06;6.03;;;5.43;;
13291;SDS011;6714;53.056;8.690;2022-08-19T08:58:54;7.53;;;6.73;;
13291;SDS011;6714;53.056;8.690;2022-08-19T09:01:39;5.20;;;4.80;;
13291;SDS011;6714;53.056;8.690;2022-08-19T09:04:21;5.60;;;5.10;;
13291;SDS011;6714;53.056;8.690;2022-08-19T09:07:10;5.03;;;4.60;;
13291;SDS011;6714;53.056;8.690;2022-08-19T09:09:56;5.67;;;4.73;;
13291;SDS011;6714;53.056;8.690;2022-08-19T09:12:45;5.10;;;4.10;;
13291;SDS011;6714;53.056;8.690;2022-08-19T09:15:32;4.13;;;3.73;;
13291;SDS011;6714;53.056;8.690;2022-08-19T09:18:19;5.83;;;4.53;;
13291;SDS011;6714;53.056;8.690;2022-08-19T09:21:01;3.93;;;3.57;;
13291;SDS011;6714;53.056;8.690;2022-08-19T09:23:44;4.47;;;3.93;;
13291;SDS011;6714;53.056;8.690;2022-08-19T09:26:26;2.87;;;2.67;;
13291;SDS011;6714;53.056;8.690;2022-08-19T09:29:09;3.73;;;3.10;;
13291;SDS011;6714;53.056;8.690;2022-08-19T09:31:51;4.10;;;3.80;;
13291;SDS011;6714;53.056;8.690;2022-08-19T09:34:35;2.97;;;2.77;;
13291;SDS011;6714;53.056;8.690;2022-08-19T09:37:17;3.17;;;2.87;;
13291;SDS011;6714;53.056;8.690;2022-08-19T09:39:59;2.50;;;2.30;;
13291;SDS011;6714;53.056;8.690;2022-08-19T09:42:43;2.60;;;2.40;;
13291;SDS011;6714;53.056;8.690;2022-08-19T09:45:27;2.97;;;2.77;;
13291;SDS011;6714;53.056;8.690;2022-08-19T09:48:09;2.43;;;2.27;;
13291;SDS011;6714;53.056;8.690;2022-08-19T09:50:53;2.30;;;2.20;;
13291;SDS011;6714;53.056;8.690;2022-08-19T09:53:36;2.40;;;2.22;;
13291;SDS011;6714;53.056;8.690;2022-08-19T09:56:19;2.42;;;2.25;;
13291;SDS011;6714;53.056;8.690;2022-08-19T09:59:02;2.60;;;2.40;;
13291;SDS011;6714;53.056;8.690;2022-08-19T10:01:44;2.10;;;2.00;;
13291;SDS011;6714;53.056;8.690;2022-08-19T10:04:27;1.90;;;1.88;;
13291;SDS011;6714;53.056;8.690;2022-08-19T10:07:24;2.25;;;2.05;;
13291;SDS011;6714;53.056;8.690;2022-08-19T10:10:07;2.05;;;1.95;;
13291;SDS011;6714;53.056;8.690;2022-08-19T10:12:49;2.88;;;2.67;;
13291;SDS011;6714;53.056;8.690;2022-08-19T10:15:31;2.10;;;2.00;;
13291;SDS011;6714;53.056;8.690;2022-08-19T10:18:13;1.42;;;1.42;;
13291;SDS011;6714;53.056;8.690;2022-08-19T10:21:02;1.95;;;1.75;;
13291;SDS011;6714;53.056;8.690;2022-08-19T10:23:50;1.85;;;1.75;;
13291;SDS011;6714;53.056;8.690;2022-08-19T10:26:33;1.58;;;1.48;;
13291;SDS011;6714;53.056;8.690;2022-08-19T10:29:17;1.45;;;1.40;;
13291;SDS011;6714;53.056;8.690;2022-08-19T10:31:59;1.25;;;1.23;;
13291;SDS011;6714;53.056;8.690;2022-08-19T10:34:41;1.27;;;1.27;;
13291;SDS011;6714;53.056;8.690;2022-08-19T10:37:24;1.30;;;1.20;;
13291;SDS011;6714;53.056;8.690;2022-08-19T10:40:08;1.20;;;1.20;;
13291;SDS011;6714;53.056;8.690;2022-08-19T10:42:51;1.35;;;1.30;;
13291;SDS011;6714;53.056;8.690;2022-08-19T10:45:34;1.00;;;1.00;;
13291;SDS011;6714;53.056;8.690;2022-08-19T10:48:17;1.23;;;1.13;;
13291;SDS011;6714;53.056;8.690;2022-08-19T10:50:59;1.23;;;1.23;;
13291;SDS011;6714;53.056;8.690;2022-08-19T10:53:58;1.10;;;1.10;;
13291;SDS011;6714;53.056;8.690;2022-08-19T10:56:44;0.90;;;0.90;;
13291;SDS011;6714;53.056;8.690;2022-08-19T10:59:31;1.00;;;1.00;;
13291;SDS011;6714;53.056;8.690;2022-08-19T11:02:15;1.20;;;1.05;;
13291;SDS011;6714;53.056;8.690;2022-08-19T11:04:57;0.90;;;0.90;;
13291;SDS011;6714;53.056;8.690;2022-08-19T11:07:39;0.98;;;0.98;;
13291;SDS011;6714;53.056;8.690;2022-08-19T11:10:22;1.00;;;1.00;;
13291;SDS011;6714;53.056;8.690;2022-08-19T11:13:05;0.68;;;0.68;;
13291;SDS011;6714;53.056;8.690;2022-08-19T11:15:47;0.90;;;0.90;;
13291;SDS011;6714;53.056;8.690;2022-08-19T11:18:38;0.98;;;0.98;;
13291;SDS011;6714;53.056;8.690;2022-08-19T11:21:22;1.20;;;1.20;;
13291;SDS011;6714;53.056;8.690;2022-08-19T11:24:06;0.90;;;0.90;;
13291;SDS011;6714;53.056;8.690;2022-08-19T11:26:49;1.42;;;0.80;;
13291;SDS011;6714;53.056;8.690;2022-08-19T11:29:36;0.80;;;0.80;;
13291;SDS011;6714;53.056;8.690;2022-08-19T11:32:19;0.80;;;0.80;;
13291;SDS011;6714;53.056;8.690;2022-08-19T11:35:01;0.70;;;0.70;;
13291;SDS011;6714;53.056;8.690;2022-08-19T11:37:43;0.70;;;0.70;;
13291;SDS011;6714;53.056;8.690;2022-08-19T11:40:25;0.88;;;0.88;;
13291;SDS011;6714;53.056;8.690;2022-08-19T11:43:08;1.55;;;0.90;;
13291;SDS011;6714;53.056;8.690;2022-08-19T11:45:51;0.85;;;0.85;;
13291;SDS011;6714;53.056;8.690;2022-08-19T11:48:34;0.82;;;0.82;;
13291;SDS011;6714;53.056;8.690;2022-08-19T11:51:18;0.80;;;0.80;;
13291;SDS011;6714;53.056;8.690;2022-08-19T11:54:01;0.80;;;0.80;;
13291;SDS011;6714;53.056;8.690;2022-08-19T11:56:44;0.70;;;0.70;;
13291;SDS011;6714;53.056;8.690;2022-08-19T11:59:27;0.80;;;0.80;;
13291;SDS011;6714;53.056;8.690;2022-08-19T12:02:12;0.60;;;0.60;;
13291;SDS011;6714;53.056;8.690;2022-08-19T12:04:55;0.70;;;0.70;;
13291;SDS011;6714;53.056;8.690;2022-08-19T12:07:37;1.00;;;0.80;;
13291;SDS011;6714;53.056;8.690;2022-08-19T12:10:19;0.80;;;0.80;;
13291;SDS011;6714;53.056;8.690;2022-08-19T12:13:01;0.73;;;0.73;;
13291;SDS011;6714;53.056;8.690;2022-08-19T12:15:44;0.80;;;0.80;;
13291;SDS011;6714;53.056;8.690;2022-08-19T12:18:28;0.63;;;0.63;;
13291;SDS011;6714;53.056;8.690;2022-08-19T12:21:11;0.93;;;0.93;;
13291;SDS011;6714;53.056;8.690;2022-08-19T12:23:54;0.70;;;0.70;;
13291;SDS011;6714;53.056;8.690;2022-08-19T12:26:37;0.70;;;0.70;;
13291;SDS011;6714;53.056;8.690;2022-08-19T12:29:19;0.80;;;0.80;;
13291;SDS011;6714;53.056;8.690;2022-08-19T12:32:08;0.80;;;0.80;;
13291;SDS011;6714;53.056;8.690;2022-08-19T12:34:52;0.57;;;0.57;;
13291;SDS011;6714;53.056;8.690;2022-08-19T12:37:34;0.60;;;0.60;;
13291;SDS011;6714;53.056;8.690;2022-08-19T12:40:17;0.70;;;0.70;;
13291;SDS011;6714;53.056;8.690;2022-08-19T12:42:59;0.70;;;0.70;;
13291;SDS011;6714;53.056;8.690;2022-08-19T12:45:42;0.88;;;0.88;;
13291;SDS011;6714;53.056;8.690;2022-08-19T12:48:25;0.50;;;0.50;;
13291;SDS011;6714;53.056;8.690;2022-08-19T12:51:09;0.60;;;0.60;;
13291;SDS011;6714;53.056;8.690;2022-08-19T12:53:52;0.60;;;0.60;;
13291;SDS011;6714;53.056;8.690;2022-08-19T12:56:35;0.60;;;0.60;;
13291;SDS011;6714;53.056;8.690;2022-08-19T12:59:18;0.60;;;0.60;;
13291;SDS011;6714;53.056;8.690;2022-08-19T13:02:00;0.60;;;0.60;;
13291;SDS011;6714;53.056;8.690;2022-08-19T13:04:45;0.80;;;0.80;;
13291;SDS011;6714;53.056;8.690;2022-08-19T13:07:28;0.60;;;0.60;;
13291;SDS011;6714;53.056;8.690;2022-08-19T13:10:12;0.70;;;0.70;;
13291;SDS011;6714;53.056;8.690;2022-08-19T13:12:55;0.70;;;0.70;;
13291;SDS011;6714;53.056;8.690;2022-08-19T13:15:40;0.70;;;0.70;;
13291;SDS011;6714;53.056;8.690;2022-08-19T13:18:25;0.63;;;0.63;;
13291;SDS011;6714;53.056;8.690;2022-08-19T13:21:08;0.77;;;0.77;;
13291;SDS011;6714;53.056;8.690;2022-08-19T13:23:53;0.82;;;0.82;;
13291;SDS011;6714;53.056;8.690;2022-08-19T13:26:35;1.27;;;0.80;;
13291;SDS011;6714;53.056;8.690;2022-08-19T13:29:17;0.82;;;0.82;;
13291;SDS011;6714;53.056;8.690;2022-08-19T13:32:16;0.60;;;0.60;;
13291;SDS011;6714;53.056;8.690;2022-08-19T13:35:16;0.80;;;0.80;;
13291;SDS011;6714;53.056;8.690;2022-08-19T13:38:00;0.70;;;0.70;;
13291;SDS011;6714;53.056;8.690;2022-08-19T13:40:46;0.68;;;0.68;;
13291;SDS011;6714;53.056;8.690;2022-08-19T13:43:29;0.55;;;0.55;;
13291;SDS011;6714;53.056;8.690;2022-08-19T13:46:11;0.63;;;0.63;;
13291;SDS011;6714;53.056;8.690;2022-08-19T13:48:55;0.70;;;0.70;;
13291;SDS011;6714;53.056;8.690;2022-08-19T13:51:38;0.80;;;0.80;;
13291;SDS011;6714;53.056;8.690;2022-08-19T13:54:20;0.75;;;0.75;;
13291;SDS011;6714;53.056;8.690;2022-08-19T13:57:04;0.60;;;0.60;;
13291;SDS011;6714;53.056;8.690;2022-08-19T13:59:46;0.60;;;0.60;;
13291;SDS011;6714;53.056;8.690;2022-08-19T14:02:28;0.60;;;0.60;;
13291;SDS011;6714;53.056;8.690;2022-08-19T14:05:12;0.75;;;0.70;;
13291;SDS011;6714;53.056;8.690;2022-08-19T14:07:56;0.73;;;0.73;;
13291;SDS011;6714;53.056;8.690;2022-08-19T14:10:39;0.70;;;0.70;;
13291;SDS011;6714;53.056;8.690;2022-08-19T14:13:25;0.88;;;0.88;;
13291;SDS011;6714;53.056;8.690;2022-08-19T14:16:07;1.02;;;0.95;;
13291;SDS011;6714;53.056;8.690;2022-08-19T14:18:50;0.90;;;0.90;;
13291;SDS011;6714;53.056;8.690;2022-08-19T14:21:32;0.80;;;0.80;;
13291;SDS011;6714;53.056;8.690;2022-08-19T14:24:16;0.80;;;0.80;;
13291;SDS011;6714;53.056;8.690;2022-08-19T14:26:58;0.70;;;0.70;;
13291;SDS011;6714;53.056;8.690;2022-08-19T14:29:42;0.90;;;0.90;;
13291;SDS011;6714;53.056;8.690;2022-08-19T14:32:25;1.00;;;0.90;;
13291;SDS011;6714;53.056;8.690;2022-08-19T14:35:07;0.80;;;0.80;;
13291;SDS011;6714;53.056;8.690;2022-08-19T14:37:50;1.00;;;1.00;;
13291;SDS011;6714;53.056;8.690;2022-08-19T14:40:35;0.88;;;0.88;;
13291;SDS011;6714;53.056;8.690;2022-08-19T14:43:18;0.90;;;0.90;;
13291;SDS011;6714;53.056;8.690;2022-08-19T14:46:03;1.65;;;1.00;;
13291;SDS011;6714;53.056;8.690;2022-08-19T14:48:45;0.90;;;0.90;;
13291;SDS011;6714;53.056;8.690;2022-08-19T14:51:28;0.90;;;0.90;;
13291;SDS011;6714;53.056;8.690;2022-08-19T14:54:10;0.90;;;0.90;;
13291;SDS011;6714;53.056;8.690;2022-08-19T14:56:54;1.00;;;1.00;;
13291;SDS011;6714;53.056;8.690;2022-08-19T14:59:37;1.33;;;0.93;;
13291;SDS011;6714;53.056;8.690;2022-08-19T15:02:20;0.77;;;0.77;;
13291;SDS011;6714;53.056;8.690;2022-08-19T15:05:03;0.80;;;0.80;;
13291;SDS011;6714;53.056;8.690;2022-08-19T15:07:45;1.20;;;1.10;;
13291;SDS011;6714;53.056;8.690;2022-08-19T15:10:27;1.17;;;1.00;;
13291;SDS011;6714;53.056;8.690;2022-08-19T15:13:13;0.93;;;0.90;;
13291;SDS011;6714;53.056;8.690;2022-08-19T15:15:55;1.60;;;1.10;;
13291;SDS011;6714;53.056;8.690;2022-08-19T15:18:39;1.20;;;1.10;;
13291;SDS011;6714;53.056;8.690;2022-08-19T15:21:23;1.25;;;1.15;;
13291;SDS011;6714;53.056;8.690;2022-08-19T15:24:05;0.90;;;0.90;;
13291;SDS011;6714;53.056;8.690;2022-08-19T15:26:49;0.98;;;0.98;;
13291;SDS011;6714;53.056;8.690;2022-08-19T15:29:31;1.10;;;1.10;;
13291;SDS011;6714;53.056;8.690;2022-08-19T15:32:13;1.17;;;1.00;;
13291;SDS011;6714;53.056;8.690;2022-08-19T15:34:57;1.00;;;1.00;;
13291;SDS011;6714;53.056;8.690;2022-08-19T15:37:41;1.10;;;1.10;;
13291;SDS011;6714;53.056;8.690;2022-08-19T15:40:24;0.90;;;0.90;;
13291;SDS011;6714;53.056;8.690;2022-08-19T15:43:06;1.27;;;1.27;;
13291;SDS011;6714;53.056;8.690;2022-08-19T15:45:48;1.30;;;1.30;;
13291;SDS011;6714;53.056;8.690;2022-08-19T15:48:30;1.10;;;1.10;;
13291;SDS011;6714;53.056;8.690;2022-08-19T15:51:14;1.15;;;1.05;;
13291;SDS011;6714;53.056;8.690;2022-08-19T15:53:58;1.23;;;1.10;;
13291;SDS011;6714;53.056;8.690;2022-08-19T15:56:40;1.35;;;1.23;;
13291;SDS011;6714;53.056;8.690;2022-08-19T15:59:46;1.50;;;1.40;;
13291;SDS011;6714;53.056;8.690;2022-08-19T16:02:46;1.05;;;1.05;;
13291;SDS011;6714;53.056;8.690;2022-08-19T16:05:46;1.00;;;1.00;;
13291;SDS011;6714;53.056;8.690;2022-08-19T16:08:47;1.20;;;1.20;;
13291;SDS011;6714;53.056;8.690;2022-08-19T16:11:31;1.05;;;1.05;;
13291;SDS011;6714;53.056;8.690;2022-08-19T16:14:14;1.13;;;1.13;;
13291;SDS011;6714;53.056;8.690;2022-08-19T16:16:57;1.25;;;1.20;;
13291;SDS011;6714;53.056;8.690;2022-08-19T16:19:39;1.10;;;1.10;;
13291;SDS011;6714;53.056;8.690;2022-08-19T16:22:26;1.88;;;1.02;;
13291;SDS011;6714;53.056;8.690;2022-08-19T16:25:10;1.40;;;1.30;;
13291;SDS011;6714;53.056;8.690;2022-08-19T16:27:52;1.30;;;1.30;;
13291;SDS011;6714;53.056;8.690;2022-08-19T16:30:35;1.20;;;1.20;;
13291;SDS011;6714;53.056;8.690;2022-08-19T16:33:18;1.10;;;1.10;;
13291;SDS011;6714;53.056;8.690;2022-08-19T16:36:00;1.23;;;1.23;;
13291;SDS011;6714;53.056;8.690;2022-08-19T16:38:42;1.15;;;1.15;;
13291;SDS011;6714;53.056;8.690;2022-08-19T16:41:27;1.30;;;1.20;;